createdAt,value
2022-09-06T00:01:15.587Z,72.04
2022-09-06T00:03:44.691Z,72.50
2022-09-06T00:06:15.223Z,72.69
2022-09-06T00:08:44.817Z,72.89
2022-09-06T00:11:13.813Z,72.79
2022-09-06T00:13:41.989Z,73.08
2022-09-06T00:16:13.541Z,73.06
2022-09-06T00:18:43.144Z,73.03
2022-09-06T00:21:20.538Z,73.28
2022-09-06T00:23:48.810Z,72.90
2022-09-06T00:26:17.404Z,72.87
2022-09-06T00:28:45.677Z,72.70
2022-09-06T00:31:16.965Z,72.45
2022-09-06T00:33:45.198Z,72.37
2022-09-06T00:36:13.879Z,71.60
2022-09-06T00:38:43.080Z,70.94
2022-09-06T00:41:13.613Z,70.77
2022-09-06T00:43:42.503Z,70.77
2022-09-06T00:46:15.953Z,70.88
2022-09-06T00:48:47.477Z,71.25
2022-09-06T00:51:16.905Z,71.49
2022-09-06T00:53:45.434Z,71.86
2022-09-06T00:56:14.327Z,72.11
2022-09-06T00:58:43.321Z,72.36
2022-09-06T01:01:11.599Z,72.50
2022-09-06T01:03:40.595Z,72.98
2022-09-06T01:06:11.645Z,73.21
2022-09-06T01:09:04.284Z,73.23
2022-09-06T01:11:48.941Z,73.17
2022-09-06T01:14:52.141Z,73.03
2022-09-06T01:18:06.207Z,73.38
2022-09-06T01:20:52.381Z,73.61
2022-09-06T01:23:41.341Z,73.51
2022-09-06T01:27:04.926Z,73.65
2022-09-06T01:29:56.607Z,73.67
2022-09-06T01:32:45.912Z,73.69
2022-09-06T01:35:24.863Z,73.77
2022-09-06T01:37:53.938Z,73.57
2022-09-06T01:40:22.720Z,73.74
2022-09-06T01:42:53.415Z,73.84
2022-09-06T01:45:29.822Z,73.53
2022-09-06T01:48:23.649Z,73.33
2022-09-06T01:51:22.695Z,73.08
2022-09-06T01:54:13.403Z,72.60
2022-09-06T01:56:56.829Z,72.52
2022-09-06T01:59:36.929Z,72.42
2022-09-06T02:02:07.976Z,72.30
2022-09-06T02:04:41.957Z,72.46
2022-09-06T02:07:26.396Z,72.35
2022-09-06T02:10:06.858Z,72.21
2022-09-06T02:12:39.982Z,72.38
2022-09-06T02:15:24.604Z,72.26
2022-09-06T02:18:15.289Z,72.45
2022-09-06T02:20:50.957Z,72.71
2022-09-06T02:23:24.153Z,72.83
2022-09-06T02:25:59.704Z,72.94
2022-09-06T02:28:28.175Z,73.16
2022-09-06T02:31:01.370Z,73.33
2022-09-06T02:33:33.743Z,73.70
2022-09-06T02:36:08.755Z,73.57
2022-09-06T02:38:40.841Z,73.71
2022-09-06T02:41:09.705Z,73.88
2022-09-06T02:43:37.907Z,73.98
2022-09-06T02:46:06.233Z,74.21
2022-09-06T02:48:34.359Z,74.20
2022-09-06T02:51:06.993Z,74.02
2022-09-06T02:53:36.104Z,73.99
2022-09-06T02:56:04.756Z,73.96
2022-09-06T02:58:32.895Z,74.07
2022-09-06T03:01:01.614Z,73.93
2022-09-06T03:03:29.887Z,74.17
2022-09-06T03:05:57.952Z,73.95
2022-09-06T03:08:26.817Z,74.07
2022-09-06T03:10:57.123Z,74.13
2022-09-06T03:13:26.134Z,74.14
2022-09-06T03:15:59.776Z,73.83
2022-09-06T03:18:30.144Z,74.06
2022-09-06T03:20:58.772Z,73.76
2022-09-06T03:23:28.811Z,73.67
2022-09-06T03:25:57.091Z,73.49
2022-09-06T03:28:25.763Z,73.28
2022-09-06T03:30:54.138Z,73.20
2022-09-06T03:33:23.100Z,73.38
2022-09-06T03:35:54.500Z,73.32
2022-09-06T03:38:23.623Z,73.83
2022-09-06T03:40:53.022Z,73.98
2022-09-06T03:43:23.378Z,73.99
2022-09-06T03:45:54.093Z,73.70
2022-09-06T03:48:24.148Z,73.42
2022-09-06T03:50:55.342Z,73.21
2022-09-06T03:53:25.301Z,73.25
2022-09-06T03:55:55.311Z,73.31
2022-09-06T03:58:25.434Z,73.41
2022-09-06T04:01:09.315Z,73.46
2022-09-06T04:03:38.671Z,73.71
2022-09-06T04:06:07.664Z,73.92
2022-09-06T04:08:36.753Z,73.99
2022-09-06T04:11:06.252Z,74.07
2022-09-06T04:13:34.949Z,74.14
2022-09-06T04:16:04.031Z,74.14
2022-09-06T04:18:32.838Z,74.18
2022-09-06T04:21:01.376Z,74.34
2022-09-06T04:23:30.230Z,74.50
2022-09-06T04:25:59.834Z,74.46
2022-09-06T04:28:28.590Z,74.56
2022-09-06T04:31:04.040Z,74.60
2022-09-06T04:33:34.839Z,74.73
2022-09-06T04:36:06.476Z,74.73
2022-09-06T04:38:42.423Z,74.76
2022-09-06T04:41:12.522Z,74.76
2022-09-06T04:43:40.611Z,74.63
2022-09-06T04:46:14.758Z,74.72
2022-09-06T04:48:42.874Z,74.71
2022-09-06T04:51:10.931Z,74.75
2022-09-06T04:53:39.015Z,74.83
2022-09-06T04:56:07.403Z,74.42
2022-09-06T04:58:35.494Z,74.29
2022-09-06T05:01:03.688Z,73.79
2022-09-06T05:03:31.957Z,73.58
2022-09-06T05:06:26.422Z,73.59
2022-09-06T05:08:54.691Z,73.32
2022-09-06T05:11:23.378Z,73.14
2022-09-06T05:13:51.473Z,72.95
2022-09-06T05:16:19.671Z,72.68
2022-09-06T05:18:47.895Z,72.35
2022-09-06T05:21:16.274Z,72.41
2022-09-06T05:23:45.065Z,72.47
2022-09-06T05:26:13.346Z,72.42
2022-09-06T05:28:41.517Z,72.07
2022-09-06T05:31:12.143Z,71.85
2022-09-06T05:33:40.439Z,71.81
2022-09-06T05:36:08.908Z,71.25
2022-09-06T05:38:37.084Z,71.16
2022-09-06T05:41:05.573Z,71.10
2022-09-06T05:43:33.735Z,71.06
2022-09-06T05:46:04.029Z,70.89
2022-09-06T05:48:36.585Z,70.93
2022-09-06T05:51:14.118Z,70.83
2022-09-06T05:53:44.969Z,70.96
2022-09-06T05:56:14.767Z,70.11
2022-09-06T05:58:43.261Z,69.91
2022-09-06T06:01:18.719Z,69.67
2022-09-06T06:04:11.254Z,69.03
2022-09-06T06:06:39.423Z,69.12
2022-09-06T06:09:07.531Z,69.06
2022-09-06T06:11:36.085Z,68.61
2022-09-06T06:14:05.077Z,67.64
2022-09-06T06:16:34.344Z,67.32
2022-09-06T06:19:02.651Z,67.66
2022-09-06T06:21:32.798Z,68.20
2022-09-06T06:24:05.159Z,68.24
2022-09-06T06:26:35.472Z,67.73
2022-09-06T06:29:05.889Z,67.89
2022-09-06T06:31:34.371Z,68.15
2022-09-06T06:34:06.036Z,67.78
2022-09-06T06:36:36.300Z,67.45
2022-09-06T06:39:06.992Z,67.31
2022-09-06T06:41:35.779Z,67.16
2022-09-06T06:44:05.901Z,66.88
2022-09-06T06:46:37.440Z,66.70
2022-09-06T06:49:06.325Z,66.65
2022-09-06T06:51:39.537Z,66.54
2022-09-06T06:54:07.543Z,66.53
2022-09-06T06:56:38.530Z,66.27
2022-09-06T06:59:08.258Z,66.03
2022-09-06T07:01:37.454Z,66.16
2022-09-06T07:04:07.331Z,65.90
2022-09-06T07:12:27.493Z,65.92
2022-09-06T07:14:55.946Z,65.55
2022-09-06T07:17:24.048Z,65.29
2022-09-06T07:22:41.491Z,64.75
2022-09-06T07:25:14.448Z,64.81
2022-09-06T07:30:14.465Z,65.02
2022-09-06T07:32:42.692Z,64.64
2022-09-06T07:35:14.295Z,64.52
2022-09-06T07:37:42.352Z,63.94
2022-09-06T07:40:11.086Z,63.66
2022-09-06T07:42:39.482Z,63.84
2022-09-06T07:45:08.474Z,63.03
2022-09-06T07:53:16.632Z,63.55
2022-09-06T07:55:47.764Z,63.42
2022-09-06T07:58:16.243Z,63.30
2022-09-06T08:00:44.496Z,63.42
2022-09-06T08:03:12.692Z,62.79
2022-09-06T08:11:18.078Z,62.56
2022-09-06T08:13:50.435Z,62.50
2022-09-06T08:16:18.754Z,62.12
2022-09-06T08:18:51.738Z,62.30
2022-09-06T08:21:21.096Z,61.49
2022-09-06T08:23:52.068Z,61.13
2022-09-06T08:26:22.994Z,60.50
2022-09-06T08:29:06.939Z,59.50
2022-09-06T08:31:37.746Z,59.75
2022-09-06T08:34:06.459Z,59.39
2022-09-06T08:36:36.072Z,59.32
2022-09-06T08:39:07.104Z,60.04
2022-09-06T08:41:51.560Z,60.07
2022-09-06T08:47:15.145Z,59.20
2022-09-06T08:49:46.328Z,58.75
2022-09-06T08:52:14.465Z,57.96
2022-09-06T08:55:20.837Z,57.84
2022-09-06T08:58:26.554Z,57.49
2022-09-06T09:01:06.372Z,57.09
2022-09-06T09:03:39.866Z,57.03
2022-09-06T09:06:10.404Z,57.01
2022-09-06T09:09:06.098Z,56.82
2022-09-06T09:11:36.393Z,56.38
2022-09-06T09:14:08.478Z,56.44
2022-09-06T09:16:36.587Z,56.11
2022-09-06T09:19:06.679Z,55.21
2022-09-06T09:21:37.933Z,55.19
2022-09-06T09:24:12.159Z,54.27
2022-09-06T09:27:18.812Z,52.94
2022-09-06T09:32:47.819Z,52.45
2022-09-06T09:35:15.997Z,52.63
2022-09-06T09:40:33.649Z,52.40
2022-09-06T09:43:23.013Z,52.48
2022-09-06T09:46:13.215Z,49.91
2022-09-06T09:48:49.746Z,50.17
2022-09-06T09:51:26.107Z,50.50
2022-09-06T09:53:58.780Z,49.90
2022-09-06T09:56:33.443Z,49.78
2022-09-06T09:59:03.827Z,47.86
2022-09-06T10:01:34.098Z,45.70
2022-09-06T10:07:28.876Z,45.47
2022-09-06T10:10:00.975Z,44.22
2022-09-06T10:12:34.991Z,44.93
2022-09-06T10:15:06.937Z,43.47
2022-09-06T10:17:49.534Z,40.50
2022-09-06T10:20:18.352Z,40.19
2022-09-06T10:26:46.563Z,40.02
2022-09-06T10:29:33.774Z,39.00
2022-09-06T10:32:32.879Z,38.72
2022-09-06T10:35:07.936Z,38.26
2022-09-06T10:37:51.553Z,38.02
2022-09-06T10:40:39.622Z,38.53
2022-09-06T10:43:16.893Z,38.91
2022-09-06T10:45:59.488Z,38.81
2022-09-06T10:48:46.569Z,39.46
2022-09-06T10:51:36.497Z,40.35
2022-09-06T10:54:17.474Z,40.60
2022-09-06T10:56:54.043Z,39.69
2022-09-06T10:59:36.498Z,38.53
2022-09-06T11:02:08.522Z,38.14
2022-09-06T11:07:31.230Z,37.06
2022-09-06T11:10:19.399Z,36.06
2022-09-06T11:13:08.999Z,36.69
2022-09-06T11:15:46.183Z,36.86
2022-09-06T11:18:32.895Z,36.58
2022-09-06T11:21:38.564Z,36.80
2022-09-06T11:24:12.411Z,36.01
2022-09-06T11:26:46.062Z,34.99
2022-09-06T11:29:21.505Z,35.68
2022-09-06T11:34:54.924Z,37.58
2022-09-06T11:37:39.626Z,35.86
2022-09-06T11:40:27.288Z,35.08
2022-09-06T11:42:58.856Z,35.57
2022-09-06T11:45:52.643Z,36.05
2022-09-06T11:48:23.589Z,36.12
2022-09-06T11:50:54.718Z,35.35
2022-09-06T11:53:31.603Z,35.29
2022-09-06T11:56:02.569Z,35.53
2022-09-06T11:58:44.944Z,35.99
2022-09-06T12:01:13.019Z,36.91
2022-09-06T12:04:09.228Z,37.47
2022-09-06T12:06:43.159Z,37.56
2022-09-06T12:09:33.575Z,36.97
2022-09-06T12:12:02.956Z,37.14
2022-09-06T12:14:36.161Z,36.55
2022-09-06T12:17:10.025Z,34.04
2022-09-06T12:19:44.061Z,32.77
2022-09-06T12:22:29.026Z,32.31
2022-09-06T12:25:16.578Z,31.63
2022-09-06T12:27:57.417Z,32.92
2022-09-06T12:30:42.403Z,32.62
2022-09-06T12:33:31.878Z,31.22
2022-09-06T12:36:18.282Z,29.89
2022-09-06T12:39:00.380Z,30.66
2022-09-06T12:41:43.087Z,30.29
2022-09-06T12:44:14.854Z,30.46
2022-09-06T12:46:50.068Z,31.39
2022-09-06T12:49:21.459Z,31.72
2022-09-06T12:51:50.092Z,32.48
2022-09-06T12:54:28.655Z,32.99
2022-09-06T12:57:13.714Z,32.80
2022-09-06T12:59:54.522Z,32.25
2022-09-06T13:02:43.148Z,32.97
2022-09-06T13:05:13.255Z,32.28
2022-09-06T13:07:47.083Z,32.28
2022-09-06T13:10:19.353Z,32.63
2022-09-06T13:12:50.741Z,32.72
2022-09-06T13:15:29.063Z,32.15
2022-09-06T13:18:33.643Z,32.23
2022-09-06T13:21:16.026Z,31.02
2022-09-06T13:23:47.774Z,29.52
2022-09-06T13:26:31.929Z,29.28
2022-09-06T13:29:18.132Z,28.23
2022-09-06T13:31:47.875Z,26.74
2022-09-06T13:34:27.999Z,26.07
2022-09-06T13:37:08.312Z,26.35
2022-09-06T13:39:46.611Z,26.12
2022-09-06T13:42:28.980Z,26.15
2022-09-06T13:45:15.619Z,26.02
2022-09-06T13:47:43.652Z,25.62
2022-09-06T13:50:12.059Z,25.01
2022-09-06T13:52:40.136Z,25.13
2022-09-06T13:55:08.911Z,24.83
2022-09-06T13:57:37.274Z,24.85
2022-09-06T14:00:05.958Z,25.03
2022-09-06T14:02:34.119Z,24.77
2022-09-06T14:05:02.409Z,24.52
2022-09-06T14:07:30.584Z,24.32
2022-09-06T14:10:00.210Z,24.66
2022-09-06T14:12:28.567Z,24.69
2022-09-06T14:14:56.747Z,25.59
2022-09-06T14:17:24.955Z,26.17
2022-09-06T14:19:53.296Z,25.50
2022-09-06T14:22:21.574Z,25.53
2022-09-06T14:24:49.850Z,25.95
2022-09-06T14:27:18.437Z,27.03
2022-09-06T14:29:46.362Z,26.44
2022-09-06T14:32:15.861Z,25.22
2022-09-06T14:34:47.562Z,24.58
2022-09-06T14:37:15.498Z,24.54
2022-09-06T14:39:43.642Z,25.07
2022-09-06T14:42:11.773Z,25.20
2022-09-06T14:44:39.987Z,25.64
2022-09-06T14:47:08.864Z,26.02
2022-09-06T14:49:37.013Z,26.80
2022-09-06T14:52:05.088Z,27.14
2022-09-06T14:54:33.360Z,27.37
2022-09-06T14:57:01.544Z,27.24
2022-09-06T14:59:30.328Z,27.11
2022-09-06T15:01:58.410Z,26.30
2022-09-06T15:04:27.902Z,26.34
2022-09-06T15:06:56.177Z,26.88
2022-09-06T15:09:24.551Z,26.80
2022-09-06T15:11:52.972Z,26.67
2022-09-06T15:14:22.853Z,26.95
2022-09-06T15:16:56.163Z,27.28
2022-09-06T15:19:26.661Z,28.15
2022-09-06T15:21:56.493Z,28.72
2022-09-06T15:24:25.315Z,28.75
2022-09-06T15:26:53.789Z,29.04
2022-09-06T15:29:22.752Z,29.38
2022-09-06T15:31:52.027Z,29.68
2022-09-06T15:34:22.407Z,30.16
2022-09-06T15:36:51.619Z,30.78
2022-09-06T15:39:20.349Z,31.40
2022-09-06T15:41:50.690Z,31.70
2022-09-06T15:44:21.755Z,31.94
2022-09-06T15:46:51.846Z,31.80
2022-09-06T15:49:28.187Z,31.32
2022-09-06T15:51:58.844Z,31.77
2022-09-06T15:54:46.539Z,31.81
2022-09-06T15:57:16.658Z,31.95
2022-09-06T15:59:45.391Z,32.68
2022-09-06T16:02:14.589Z,33.19
2022-09-06T16:04:42.973Z,34.24
2022-09-06T16:07:11.862Z,35.56
2022-09-06T16:09:40.331Z,36.19
2022-09-06T16:12:09.307Z,36.98
2022-09-06T16:14:38.319Z,37.67
2022-09-06T16:17:06.552Z,38.00
2022-09-06T16:19:34.773Z,37.97
2022-09-06T16:22:02.949Z,38.11
2022-09-06T16:24:31.536Z,38.97
2022-09-06T16:26:59.706Z,39.86
2022-09-06T16:29:27.979Z,40.64
2022-09-06T16:32:00.070Z,40.51
2022-09-06T16:34:28.944Z,40.56
2022-09-06T16:36:57.449Z,41.27
2022-09-06T16:39:25.962Z,42.51
2022-09-06T16:41:54.099Z,43.38
2022-09-06T16:44:22.244Z,43.62
2022-09-06T16:46:50.935Z,44.04
2022-09-06T16:49:20.137Z,44.58
2022-09-06T16:51:50.090Z,44.98
2022-09-06T16:54:19.193Z,45.23
2022-09-06T16:56:47.754Z,45.93
2022-09-06T16:59:17.587Z,46.91
2022-09-06T17:01:46.413Z,47.24
2022-09-06T17:04:15.529Z,47.75
2022-09-06T17:06:47.137Z,48.32
2022-09-06T17:09:21.113Z,49.13
2022-09-06T17:11:52.031Z,49.80
2022-09-06T17:14:20.062Z,50.14
2022-09-06T17:17:07.403Z,50.21
2022-09-06T17:19:41.487Z,50.33
2022-09-06T17:22:13.317Z,50.73
2022-09-06T17:24:41.779Z,51.08
2022-09-06T17:27:10.338Z,51.67
2022-09-06T17:29:40.208Z,51.90
2022-09-06T17:32:10.475Z,52.51
2022-09-06T17:34:41.949Z,52.98
2022-09-06T17:37:10.120Z,53.47
2022-09-06T17:39:39.004Z,53.58
2022-09-06T17:42:07.495Z,54.37
2022-09-06T17:44:36.119Z,54.33
2022-09-06T17:47:13.284Z,54.42
2022-09-06T17:49:43.088Z,54.60
2022-09-06T17:52:11.767Z,54.78
2022-09-06T17:54:39.864Z,55.21
2022-09-06T17:57:08.012Z,55.47
2022-09-06T17:59:36.414Z,55.65
2022-09-06T18:02:05.341Z,56.03
2022-09-06T18:04:34.137Z,56.73
2022-09-06T18:07:02.648Z,57.07
2022-09-06T18:09:31.031Z,57.38
2022-09-06T18:11:59.405Z,57.79
2022-09-06T18:14:28.822Z,58.02
2022-09-06T18:16:57.503Z,57.96
2022-09-06T18:19:27.667Z,58.09
2022-09-06T18:21:57.570Z,58.40
2022-09-06T18:24:26.015Z,58.84
2022-09-06T18:26:54.535Z,59.12
2022-09-06T18:29:23.077Z,59.09
2022-09-06T18:31:54.338Z,59.02
2022-09-06T18:34:22.908Z,59.53
2022-09-06T18:36:51.289Z,59.45
2022-09-06T18:39:20.533Z,59.77
2022-09-06T18:42:01.383Z,59.64
2022-09-06T18:44:33.388Z,60.06
2022-09-06T18:47:03.266Z,60.32
2022-09-06T18:49:33.863Z,60.25
2022-09-06T18:52:04.315Z,60.58
2022-09-06T18:54:33.219Z,60.66
2022-09-06T18:57:01.458Z,61.12
2022-09-06T18:59:29.748Z,61.44
2022-09-06T19:01:58.150Z,61.68
2022-09-06T19:04:26.380Z,62.27
2022-09-06T19:06:54.785Z,62.52
2022-09-06T19:09:23.400Z,62.53
2022-09-06T19:11:53.293Z,62.60
2022-09-06T19:14:22.194Z,62.82
2022-09-06T19:16:51.943Z,62.83
2022-09-06T19:19:21.996Z,63.22
2022-09-06T19:21:50.481Z,63.45
2022-09-06T19:24:22.845Z,63.49
2022-09-06T19:26:52.982Z,63.81
2022-09-06T19:29:21.247Z,64.43
2022-09-06T19:31:49.690Z,64.39
2022-09-06T19:34:18.266Z,64.62
2022-09-06T19:36:46.581Z,64.86
2022-09-06T19:39:16.672Z,65.09
2022-09-06T19:41:47.094Z,65.08
2022-09-06T19:44:17.275Z,65.07
2022-09-06T19:46:47.318Z,65.60
2022-09-06T19:49:19.335Z,65.35
2022-09-06T19:51:49.297Z,65.54
2022-09-06T19:54:18.166Z,65.69
2022-09-06T19:56:47.133Z,66.21
2022-09-06T19:59:17.344Z,66.56
2022-09-06T20:01:47.395Z,66.46
2022-09-06T20:04:16.222Z,66.12
2022-09-06T20:06:44.947Z,66.05
2022-09-06T20:09:16.017Z,66.06
2022-09-06T20:11:44.444Z,65.91
2022-09-06T20:14:13.614Z,65.78
2022-09-06T20:16:42.571Z,66.18
2022-09-06T20:19:12.660Z,66.17
2022-09-06T20:21:41.378Z,66.34
2022-09-06T20:24:09.772Z,66.45
2022-09-06T20:26:38.811Z,66.34
2022-09-06T20:29:07.223Z,66.54
2022-09-06T20:31:36.726Z,66.59
2022-09-06T20:34:06.646Z,66.42
2022-09-06T20:36:35.535Z,66.71
2022-09-06T20:39:04.553Z,66.96
2022-09-06T20:41:34.013Z,66.74
2022-09-06T20:44:02.947Z,66.88
2022-09-06T20:46:37.001Z,66.80
2022-09-06T20:49:06.802Z,66.99
2022-09-06T20:51:37.480Z,67.07
2022-09-06T20:54:06.290Z,66.88
2022-09-06T20:56:37.658Z,67.08
2022-09-06T20:59:08.757Z,66.95
2022-09-06T21:01:40.708Z,66.81
2022-09-06T21:04:10.183Z,66.89
2022-09-06T21:06:40.346Z,67.02
2022-09-06T21:09:11.685Z,67.38
2022-09-06T21:11:40.385Z,67.32
2022-09-06T21:14:09.692Z,67.48
2022-09-06T21:16:39.279Z,67.50
2022-09-06T21:19:10.040Z,67.72
2022-09-06T21:21:38.812Z,68.00
2022-09-06T21:24:08.609Z,68.12
2022-09-06T21:26:37.364Z,67.79
2022-09-06T21:29:06.511Z,68.27
2022-09-06T21:31:36.676Z,68.55
2022-09-06T21:34:12.544Z,68.71
2022-09-06T21:36:44.657Z,69.25
2022-09-06T21:39:13.470Z,69.29
2022-09-06T21:41:43.471Z,69.05
2022-09-06T21:44:12.917Z,69.41
2022-09-06T21:46:41.858Z,69.44
2022-09-06T21:49:12.923Z,69.70
2022-09-06T21:51:41.833Z,70.18
2022-09-06T21:54:10.581Z,70.31
2022-09-06T21:56:40.327Z,70.29
2022-09-06T21:59:09.484Z,70.34
2022-09-06T22:01:39.873Z,70.52
2022-09-06T22:04:08.663Z,70.56
2022-09-06T22:06:37.848Z,70.70
2022-09-06T22:09:11.252Z,70.42
2022-09-06T22:11:42.528Z,70.51
2022-09-06T22:14:13.208Z,70.38
2022-09-06T22:16:42.111Z,70.33
2022-09-06T22:19:11.591Z,70.15
2022-09-06T22:21:40.154Z,70.14
2022-09-06T22:24:10.713Z,70.18
2022-09-06T22:26:40.217Z,70.36
2022-09-06T22:29:11.183Z,70.45
2022-09-06T22:31:39.583Z,70.54
2022-09-06T22:34:08.424Z,70.38
2022-09-06T22:36:36.595Z,70.21
2022-09-06T22:39:05.460Z,70.23
2022-09-06T22:41:34.204Z,70.01
2022-09-06T22:44:04.061Z,69.85
2022-09-06T22:46:33.034Z,70.01
2022-09-06T22:49:02.390Z,70.17
2022-09-06T22:51:30.428Z,70.19
2022-09-06T22:53:58.435Z,70.04
2022-09-06T22:56:26.880Z,69.99
2022-09-06T22:58:55.012Z,70.18
2022-09-06T23:01:23.206Z,70.13
2022-09-06T23:03:51.659Z,70.25
2022-09-06T23:06:19.718Z,70.44
2022-09-06T23:08:47.881Z,70.23
2022-09-06T23:11:18.756Z,70.58
2022-09-06T23:13:47.501Z,70.63
2022-09-06T23:16:19.321Z,70.53
2022-09-06T23:18:48.439Z,70.58
2022-09-06T23:21:22.032Z,70.63
2022-09-06T23:23:51.976Z,70.76
2022-09-06T23:26:22.891Z,71.20
2022-09-06T23:28:56.491Z,71.34
2022-09-06T23:31:27.107Z,71.78
2022-09-06T23:33:57.507Z,71.95
2022-09-06T23:36:26.778Z,71.97
2022-09-06T23:38:56.088Z,71.93
2022-09-06T23:41:25.151Z,71.84
2022-09-06T23:43:53.523Z,71.90
2022-09-06T23:46:21.788Z,72.30
2022-09-06T23:48:49.930Z,72.02
2022-09-06T23:51:18.269Z,71.99
2022-09-06T23:53:46.705Z,72.42
2022-09-06T23:56:15.871Z,72.87
2022-09-06T23:58:43.904Z,73.18
